sensor_id;sensor_type;location;lat;lon;timestamp;pressure;altitude;pressure_sealevel;temperature;humidity
23164;BME280;31429;42.674;23.350;2022-11-02T00:00:56;95435.81;;;11.03;100.00
23164;BME280;31429;42.674;23.350;2022-11-02T00:02:00;95444.41;;;11.01;100.00
23164;BME280;31429;42.674;23.350;2022-11-02T00:03:01;95441.00;;;11.00;100.00
23164;BME280;31429;42.674;23.350;2022-11-02T00:04:02;95440.91;;;11.03;100.00
23164;BME280;31429;42.674;23.350;2022-11-02T00:05:03;95444.25;;;11.05;100.00
23164;BME280;31429;42.674;23.350;2022-11-02T00:06:04;95442.56;;;11.04;100.00
23164;BME280;31429;42.674;23.350;2022-11-02T00:07:04;95440.00;;;11.04;100.00
23164;BME280;31429;42.674;23.350;2022-11-02T00:08:05;95442.69;;;11.01;100.00
23164;BME280;31429;42.674;23.350;2022-11-02T00:09:07;95437.69;;;10.96;100.00
23164;BME280;31429;42.674;23.350;2022-11-02T00:10:08;95429.16;;;10.96;100.00
23164;BME280;31429;42.674;23.350;2022-11-02T00:11:09;95422.50;;;10.90;100.00
23164;BME280;31429;42.674;23.350;2022-11-02T00:12:10;95438.56;;;10.95;100.00
23164;BME280;31429;42.674;23.350;2022-11-02T00:13:10;95442.88;;;10.93;100.00
23164;BME280;31429;42.674;23.350;2022-11-02T00:14:11;95436.06;;;10.94;100.00
23164;BME280;31429;42.674;23.350;2022-11-02T00:15:12;95433.44;;;10.95;100.00
23164;BME280;31429;42.674;23.350;2022-11-02T00:16:14;95442.81;;;10.96;100.00
23164;BME280;31429;42.674;23.350;2022-11-02T00:17:15;95434.44;;;10.91;100.00
23164;BME280;31429;42.674;23.350;2022-11-02T00:18:15;95444.69;;;10.90;100.00
23164;BME280;31429;42.674;23.350;2022-11-02T00:19:16;95440.41;;;10.90;100.00
23164;BME280;31429;42.674;23.350;2022-11-02T00:20:18;95441.41;;;10.86;100.00
23164;BME280;31429;42.674;23.350;2022-11-02T00:21:19;95443.97;;;10.85;100.00
23164;BME280;31429;42.674;23.350;2022-11-02T00:22:21;95438.88;;;10.85;100.00
23164;BME280;31429;42.674;23.350;2022-11-02T00:23:23;95439.75;;;10.84;100.00
23164;BME280;31429;42.674;23.350;2022-11-02T00:24:25;95423.66;;;10.80;100.00
23164;BME280;31429;42.674;23.350;2022-11-02T00:25:26;95431.28;;;10.82;100.00
23164;BME280;31429;42.674;23.350;2022-11-02T00:26:28;95423.81;;;10.74;100.00
23164;BME280;31429;42.674;23.350;2022-11-02T00:27:29;95433.19;;;10.75;100.00
23164;BME280;31429;42.674;23.350;2022-11-02T00:28:30;95426.31;;;10.77;100.00
23164;BME280;31429;42.674;23.350;2022-11-02T00:29:32;95433.66;;;10.88;100.00
23164;BME280;31429;42.674;23.350;2022-11-02T00:30:33;95397.63;;;10.66;100.00
23164;BME280;31429;42.674;23.350;2022-11-02T00:31:34;95435.03;;;11.00;100.00
23164;BME280;31429;42.674;23.350;2022-11-02T00:32:34;95430.44;;;11.12;100.00
23164;BME280;31429;42.674;23.350;2022-11-02T00:33:35;95427.56;;;11.21;100.00
23164;BME280;31429;42.674;23.350;2022-11-02T00:34:36;95425.75;;;11.25;100.00
23164;BME280;31429;42.674;23.350;2022-11-02T00:35:37;95419.63;;;11.30;100.00
23164;BME280;31429;42.674;23.350;2022-11-02T00:36:37;95418.66;;;11.34;100.00
23164;BME280;31429;42.674;23.350;2022-11-02T00:37:38;95435.75;;;11.32;100.00
23164;BME280;31429;42.674;23.350;2022-11-02T00:38:39;95434.28;;;11.25;100.00
23164;BME280;31429;42.674;23.350;2022-11-02T00:39:41;95430.13;;;11.21;100.00
23164;BME280;31429;42.674;23.350;2022-11-02T00:40:41;95425.84;;;11.22;100.00
23164;BME280;31429;42.674;23.350;2022-11-02T00:41:42;95428.56;;;11.17;100.00
23164;BME280;31429;42.674;23.350;2022-11-02T00:42:47;95352.16;;;10.76;100.00
23164;BME280;31429;42.674;23.350;2022-11-02T00:43:48;95413.13;;;11.20;100.00
23164;BME280;31429;42.674;23.350;2022-11-02T00:44:49;95430.63;;;11.34;100.00
23164;BME280;31429;42.674;23.350;2022-11-02T00:45:49;95427.28;;;11.32;100.00
23164;BME280;31429;42.674;23.350;2022-11-02T00:46:50;95426.53;;;11.28;100.00
23164;BME280;31429;42.674;23.350;2022-11-02T00:47:51;95394.97;;;10.98;100.00
23164;BME280;31429;42.674;23.350;2022-11-02T00:48:51;95408.06;;;10.89;100.00
23164;BME280;31429;42.674;23.350;2022-11-02T00:49:52;95421.50;;;10.96;100.00
23164;BME280;31429;42.674;23.350;2022-11-02T00:50:53;95420.66;;;10.95;100.00
23164;BME280;31429;42.674;23.350;2022-11-02T00:51:53;95418.09;;;10.95;100.00
23164;BME280;31429;42.674;23.350;2022-11-02T00:52:54;95412.41;;;10.86;100.00
23164;BME280;31429;42.674;23.350;2022-11-02T00:53:54;95422.66;;;10.86;100.00
23164;BME280;31429;42.674;23.350;2022-11-02T00:54:56;95427.09;;;10.79;100.00
23164;BME280;31429;42.674;23.350;2022-11-02T00:55:57;95404.47;;;10.64;100.00
23164;BME280;31429;42.674;23.350;2022-11-02T00:56:58;95427.22;;;10.75;100.00
23164;BME280;31429;42.674;23.350;2022-11-02T00:57:58;95373.53;;;10.44;100.00
23164;BME280;31429;42.674;23.350;2022-11-02T00:58:59;95418.41;;;10.85;100.00
23164;BME280;31429;42.674;23.350;2022-11-02T01:00:00;95400.75;;;10.76;100.00
23164;BME280;31429;42.674;23.350;2022-11-02T01:01:03;95375.72;;;10.58;100.00
23164;BME280;31429;42.674;23.350;2022-11-02T01:02:04;95425.22;;;10.84;100.00
23164;BME280;31429;42.674;23.350;2022-11-02T01:03:04;95427.94;;;10.80;100.00
23164;BME280;31429;42.674;23.350;2022-11-02T01:04:05;95401.72;;;10.72;100.00
23164;BME280;31429;42.674;23.350;2022-11-02T01:05:07;95406.50;;;10.84;100.00
23164;BME280;31429;42.674;23.350;2022-11-02T01:06:09;95418.94;;;10.96;100.00
23164;BME280;31429;42.674;23.350;2022-11-02T01:07:10;95426.91;;;10.85;100.00
23164;BME280;31429;42.674;23.350;2022-11-02T01:08:11;95414.84;;;10.60;100.00
23164;BME280;31429;42.674;23.350;2022-11-02T01:09:13;95426.84;;;10.58;100.00
23164;BME280;31429;42.674;23.350;2022-11-02T01:10:16;95389.88;;;10.38;100.00
23164;BME280;31429;42.674;23.350;2022-11-02T01:11:18;95418.56;;;10.50;100.00
23164;BME280;31429;42.674;23.350;2022-11-02T01:12:20;95423.38;;;10.60;100.00
23164;BME280;31429;42.674;23.350;2022-11-02T01:13:20;95423.06;;;10.71;100.00
23164;BME280;31429;42.674;23.350;2022-11-02T01:14:21;95425.50;;;10.75;100.00
23164;BME280;31429;42.674;23.350;2022-11-02T01:15:22;95419.56;;;10.75;100.00
23164;BME280;31429;42.674;23.350;2022-11-02T01:16:23;95421.94;;;10.81;100.00
23164;BME280;31429;42.674;23.350;2022-11-02T01:17:23;95360.94;;;10.36;100.00
23164;BME280;31429;42.674;23.350;2022-11-02T01:18:24;95416.69;;;10.55;100.00
23164;BME280;31429;42.674;23.350;2022-11-02T01:19:25;95410.19;;;10.43;100.00
23164;BME280;31429;42.674;23.350;2022-11-02T01:20:25;95431.56;;;10.41;100.00
23164;BME280;31429;42.674;23.350;2022-11-02T01:21:26;95424.06;;;10.34;100.00
23164;BME280;31429;42.674;23.350;2022-11-02T01:22:27;95428.38;;;10.32;100.00
23164;BME280;31429;42.674;23.350;2022-11-02T01:23:30;95425.06;;;10.29;100.00
23164;BME280;31429;42.674;23.350;2022-11-02T01:24:31;95391.56;;;10.06;100.00
23164;BME280;31429;42.674;23.350;2022-11-02T01:25:33;95422.50;;;10.29;100.00
23164;BME280;31429;42.674;23.350;2022-11-02T01:26:33;95423.44;;;10.25;100.00
23164;BME280;31429;42.674;23.350;2022-11-02T01:27:34;95418.38;;;10.23;100.00
23164;BME280;31429;42.674;23.350;2022-11-02T01:28:35;95421.78;;;10.24;100.00
23164;BME280;31429;42.674;23.350;2022-11-02T01:29:36;95402.47;;;10.12;100.00
23164;BME280;31429;42.674;23.350;2022-11-02T01:30:37;95425.34;;;10.18;100.00
23164;BME280;31429;42.674;23.350;2022-11-02T01:31:37;95370.63;;;9.93;100.00
23164;BME280;31429;42.674;23.350;2022-11-02T01:32:38;95405.91;;;10.13;100.00
23164;BME280;31429;42.674;23.350;2022-11-02T01:33:42;95416.63;;;10.25;100.00
23164;BME280;31429;42.674;23.350;2022-11-02T01:34:43;95419.56;;;10.43;100.00
23164;BME280;31429;42.674;23.350;2022-11-02T01:35:44;95416.19;;;10.42;100.00
23164;BME280;31429;42.674;23.350;2022-11-02T01:36:45;95422.28;;;10.36;100.00
23164;BME280;31429;42.674;23.350;2022-11-02T01:37:47;95415.69;;;10.29;100.00
23164;BME280;31429;42.674;23.350;2022-11-02T01:38:48;95417.34;;;10.30;100.00
23164;BME280;31429;42.674;23.350;2022-11-02T01:39:48;95411.34;;;10.31;100.00
23164;BME280;31429;42.674;23.350;2022-11-02T01:40:50;95415.16;;;10.48;100.00
23164;BME280;31429;42.674;23.350;2022-11-02T01:41:51;95408.97;;;10.56;100.00
23164;BME280;31429;42.674;23.350;2022-11-02T01:42:52;95408.09;;;10.57;100.00
23164;BME280;31429;42.674;23.350;2022-11-02T01:43:55;95392.38;;;10.40;100.00
23164;BME280;31429;42.674;23.350;2022-11-02T01:44:58;95388.28;;;10.34;100.00
23164;BME280;31429;42.674;23.350;2022-11-02T01:46:03;95384.97;;;10.31;100.00
23164;BME280;31429;42.674;23.350;2022-11-02T01:47:06;95397.56;;;10.38;100.00
23164;BME280;31429;42.674;23.350;2022-11-02T01:48:07;95408.44;;;10.45;100.00
23164;BME280;31429;42.674;23.350;2022-11-02T01:49:09;95378.66;;;10.44;100.00
23164;BME280;31429;42.674;23.350;2022-11-02T01:50:14;95402.16;;;10.57;100.00
23164;BME280;31429;42.674;23.350;2022-11-02T01:51:19;95396.16;;;10.58;100.00
23164;BME280;31429;42.674;23.350;2022-11-02T01:52:24;95385.84;;;10.61;100.00
23164;BME280;31429;42.674;23.350;2022-11-02T01:53:27;95392.06;;;10.81;100.00
23164;BME280;31429;42.674;23.350;2022-11-02T01:54:30;95389.56;;;10.80;100.00
23164;BME280;31429;42.674;23.350;2022-11-02T01:55:33;95397.75;;;10.92;100.00
23164;BME280;31429;42.674;23.350;2022-11-02T01:56:37;95397.69;;;10.94;100.00
23164;BME280;31429;42.674;23.350;2022-11-02T01:57:40;95395.78;;;11.01;100.00
23164;BME280;31429;42.674;23.350;2022-11-02T01:58:47;95397.38;;;11.05;100.00
23164;BME280;31429;42.674;23.350;2022-11-02T01:59:54;95378.09;;;10.93;100.00
23164;BME280;31429;42.674;23.350;2022-11-02T02:00:56;95389.06;;;10.96;100.00
23164;BME280;31429;42.674;23.350;2022-11-02T02:01:56;95396.81;;;10.95;100.00
23164;BME280;31429;42.674;23.350;2022-11-02T02:03:01;95390.78;;;10.96;100.00
23164;BME280;31429;42.674;23.350;2022-11-02T02:04:04;95396.63;;;11.01;100.00
23164;BME280;31429;42.674;23.350;2022-11-02T02:05:07;95376.53;;;10.87;100.00
23164;BME280;31429;42.674;23.350;2022-11-02T02:06:11;95396.53;;;11.04;100.00
23164;BME280;31429;42.674;23.350;2022-11-02T02:07:13;95402.72;;;10.97;100.00
23164;BME280;31429;42.674;23.350;2022-11-02T02:08:18;95395.38;;;10.85;100.00
23164;BME280;31429;42.674;23.350;2022-11-02T02:09:19;95390.25;;;10.85;100.00
23164;BME280;31429;42.674;23.350;2022-11-02T02:10:21;95382.41;;;10.62;100.00
23164;BME280;31429;42.674;23.350;2022-11-02T02:11:26;95397.97;;;10.54;100.00
23164;BME280;31429;42.674;23.350;2022-11-02T02:12:30;95398.25;;;10.44;100.00
23164;BME280;31429;42.674;23.350;2022-11-02T02:13:32;95397.56;;;10.38;100.00
23164;BME280;31429;42.674;23.350;2022-11-02T02:14:33;95397.56;;;10.38;100.00
23164;BME280;31429;42.674;23.350;2022-11-02T02:15:39;95395.56;;;10.48;100.00
23164;BME280;31429;42.674;23.350;2022-11-02T02:17:03;95378.91;;;10.35;100.00
23164;BME280;31429;42.674;23.350;2022-11-02T02:18:09;95395.16;;;10.32;100.00
23164;BME280;31429;42.674;23.350;2022-11-02T02:19:28;95395.41;;;10.23;100.00
23164;BME280;31429;42.674;23.350;2022-11-02T02:20:45;95379.44;;;10.15;100.00
23164;BME280;31429;42.674;23.350;2022-11-02T02:22:01;95395.06;;;10.35;100.00
23164;BME280;31429;42.674;23.350;2022-11-02T02:23:17;95385.56;;;10.41;100.00
23164;BME280;31429;42.674;23.350;2022-11-02T02:24:41;95382.53;;;10.26;100.00
23164;BME280;31429;42.674;23.350;2022-11-02T02:25:57;95385.25;;;10.20;100.00
23164;BME280;31429;42.674;23.350;2022-11-02T02:27:08;95367.63;;;10.10;100.00
23164;BME280;31429;42.674;23.350;2022-11-02T02:28:18;95390.50;;;10.16;100.00
23164;BME280;31429;42.674;23.350;2022-11-02T02:29:21;95394.91;;;10.08;100.00
23164;BME280;31429;42.674;23.350;2022-11-02T02:30:23;95392.47;;;10.03;100.00
23164;BME280;31429;42.674;23.350;2022-11-02T02:31:29;95392.69;;;9.94;100.00
23164;BME280;31429;42.674;23.350;2022-11-02T02:32:37;95390.16;;;9.94;100.00
23164;BME280;31429;42.674;23.350;2022-11-02T02:33:43;95390.91;;;9.98;100.00
23164;BME280;31429;42.674;23.350;2022-11-02T02:34:51;95385.41;;;10.14;100.00
23164;BME280;31429;42.674;23.350;2022-11-02T02:35:56;95375.97;;;10.16;100.00
23164;BME280;31429;42.674;23.350;2022-11-02T02:37:01;95372.31;;;10.26;100.00
23164;BME280;31429;42.674;23.350;2022-11-02T02:38:09;95388.19;;;10.37;100.00
23164;BME280;31429;42.674;23.350;2022-11-02T02:39:15;95386.50;;;10.36;100.00
23164;BME280;31429;42.674;23.350;2022-11-02T02:40:19;95358.00;;;10.19;100.00
23164;BME280;31429;42.674;23.350;2022-11-02T02:41:25;95382.31;;;10.35;100.00
23164;BME280;31429;42.674;23.350;2022-11-02T02:42:31;95362.25;;;10.20;100.00
23164;BME280;31429;42.674;23.350;2022-11-02T02:43:36;95318.53;;;9.99;100.00
23164;BME280;31429;42.674;23.350;2022-11-02T02:44:42;95378.97;;;10.32;100.00
23164;BME280;31429;42.674;23.350;2022-11-02T02:45:49;95391.22;;;10.19;100.00
23164;BME280;31429;42.674;23.350;2022-11-02T02:46:56;95364.66;;;9.93;100.00
23164;BME280;31429;42.674;23.350;2022-11-02T02:48:01;95391.72;;;10.00;100.00
23164;BME280;31429;42.674;23.350;2022-11-02T02:49:04;95370.13;;;9.79;100.00
23164;BME280;31429;42.674;23.350;2022-11-02T02:50:12;95390.91;;;9.98;100.00
23164;BME280;31429;42.674;23.350;2022-11-02T02:51:18;95393.97;;;10.10;100.00
23164;BME280;31429;42.674;23.350;2022-11-02T02:52:22;95390.50;;;10.14;100.00
23164;BME280;31429;42.674;23.350;2022-11-02T02:53:27;95354.25;;;10.00;100.00
23164;BME280;31429;42.674;23.350;2022-11-02T02:54:31;95386.00;;;10.24;100.00
23164;BME280;31429;42.674;23.350;2022-11-02T02:55:40;95382.69;;;10.20;100.00
23164;BME280;31429;42.674;23.350;2022-11-02T02:56:46;95358.63;;;9.95;100.00
23164;BME280;31429;42.674;23.350;2022-11-02T02:57:48;95382.03;;;10.12;100.00
23164;BME280;31429;42.674;23.350;2022-11-02T02:58:56;95381.22;;;10.10;100.00
23164;BME280;31429;42.674;23.350;2022-11-02T02:59:58;95387.13;;;10.14;100.00
23164;BME280;31429;42.674;23.350;2022-11-02T03:00:59;95380.09;;;10.22;100.00
23164;BME280;31429;42.674;23.350;2022-11-02T03:02:04;95384.59;;;10.11;100.00
23164;BME280;31429;42.674;23.350;2022-11-02T03:03:16;95389.69;;;10.12;100.00
23164;BME280;31429;42.674;23.350;2022-11-02T03:04:17;95382.03;;;10.12;100.00
23164;BME280;31429;42.674;23.350;2022-11-02T03:05:22;95379.28;;;10.20;100.00
23164;BME280;31429;42.674;23.350;2022-11-02T03:06:26;95338.19;;;9.95;100.00
23164;BME280;31429;42.674;23.350;2022-11-02T03:07:31;95352.84;;;9.89;100.00
23164;BME280;31429;42.674;23.350;2022-11-02T03:08:34;95388.16;;;10.05;100.00
23164;BME280;31429;42.674;23.350;2022-11-02T03:09:40;95396.94;;;9.95;100.00
23164;BME280;31429;42.674;23.350;2022-11-02T03:10:46;95389.66;;;9.80;100.00
23164;BME280;31429;42.674;23.350;2022-11-02T03:11:53;95395.69;;;9.77;100.00
23164;BME280;31429;42.674;23.350;2022-11-02T03:13:07;95390.28;;;9.90;100.00
23164;BME280;31429;42.674;23.350;2022-11-02T03:14:20;95381.72;;;9.91;100.00
23164;BME280;31429;42.674;23.350;2022-11-02T03:15:30;95395.47;;;9.85;100.00
23164;BME280;31429;42.674;23.350;2022-11-02T03:16:47;95389.34;;;9.92;100.00
23164;BME280;31429;42.674;23.350;2022-11-02T03:18:00;95396.09;;;9.95;100.00
23164;BME280;31429;42.674;23.350;2022-11-02T03:19:09;95397.09;;;9.89;100.00
23164;BME280;31429;42.674;23.350;2022-11-02T03:20:20;95391.84;;;9.94;100.00
23164;BME280;31429;42.674;23.350;2022-11-02T03:21:41;95364.25;;;9.75;100.00
23164;BME280;31429;42.674;23.350;2022-11-02T03:22:47;95389.66;;;9.80;100.00
23164;BME280;31429;42.674;23.350;2022-11-02T03:23:54;95398.50;;;9.67;100.00
23164;BME280;31429;42.674;23.350;2022-11-02T03:25:04;95373.06;;;9.62;100.00
23164;BME280;31429;42.674;23.350;2022-11-02T03:26:11;95391.38;;;9.79;100.00
23164;BME280;31429;42.674;23.350;2022-11-02T03:27:18;95373.69;;;9.72;100.00
23164;BME280;31429;42.674;23.350;2022-11-02T03:28:25;95392.94;;;9.85;100.00
23164;BME280;31429;42.674;23.350;2022-11-02T03:29:37;95389.72;;;9.78;100.00
23164;BME280;31429;42.674;23.350;2022-11-02T03:30:43;95390.78;;;9.68;100.00
23164;BME280;31429;42.674;23.350;2022-11-02T03:31:52;95389.06;;;9.70;100.00
23164;BME280;31429;42.674;23.350;2022-11-02T03:33:00;95388.88;;;9.76;100.00
23164;BME280;31429;42.674;23.350;2022-11-02T03:34:12;95384.06;;;9.66;100.00
23164;BME280;31429;42.674;23.350;2022-11-02T03:35:20;95386.81;;;9.92;100.00
23164;BME280;31429;42.674;23.350;2022-11-02T03:36:30;95402.13;;;9.92;100.00
23164;BME280;31429;42.674;23.350;2022-11-02T03:37:34;95401.56;;;9.81;100.00
23164;BME280;31429;42.674;23.350;2022-11-02T03:38:42;95382.22;;;9.71;100.00
23164;BME280;31429;42.674;23.350;2022-11-02T03:39:47;95398.84;;;9.87;100.00
23164;BME280;31429;42.674;23.350;2022-11-02T03:40:51;95393.50;;;9.96;100.00
23164;BME280;31429;42.674;23.350;2022-11-02T03:41:55;95383.97;;;10.03;100.00
23164;BME280;31429;42.674;23.350;2022-11-02T03:42:59;95289.31;;;9.44;100.00
23164;BME280;31429;42.674;23.350;2022-11-02T03:44:05;95394.31;;;9.98;100.00
23164;BME280;31429;42.674;23.350;2022-11-02T03:45:12;95391.75;;;9.98;100.00
23164;BME280;31429;42.674;23.350;2022-11-02T03:46:15;95395.25;;;9.96;100.00
23164;BME280;31429;42.674;23.350;2022-11-02T03:47:19;95394.25;;;10.00;100.00
23164;BME280;31429;42.674;23.350;2022-11-02T03:48:24;95378.34;;;9.90;100.00
23164;BME280;31429;42.674;23.350;2022-11-02T03:49:29;95358.16;;;9.81;100.00
23164;BME280;31429;42.674;23.350;2022-11-02T03:50:31;95396.09;;;9.95;100.00
23164;BME280;31429;42.674;23.350;2022-11-02T03:51:36;95380.78;;;9.95;100.00
23164;BME280;31429;42.674;23.350;2022-11-02T03:52:40;95374.97;;;9.90;100.00
23164;BME280;31429;42.674;23.350;2022-11-02T03:53:48;95391.91;;;9.92;100.00
23164;BME280;31429;42.674;23.350;2022-11-02T03:54:57;95392.69;;;9.94;100.00
23164;BME280;31429;42.674;23.350;2022-11-02T03:56:03;95389.31;;;9.94;100.00
23164;BME280;31429;42.674;23.350;2022-11-02T03:57:08;95382.06;;;9.78;100.00
23164;BME280;31429;42.674;23.350;2022-11-02T03:58:11;95383.78;;;9.76;100.00
23164;BME280;31429;42.674;23.350;2022-11-02T03:59:12;95387.09;;;9.81;100.00
23164;BME280;31429;42.674;23.350;2022-11-02T04:00:16;95381.91;;;9.83;100.00
23164;BME280;31429;42.674;23.350;2022-11-02T04:01:18;95381.66;;;9.94;100.00
23164;BME280;31429;42.674;23.350;2022-11-02T04:02:19;95383.38;;;9.93;100.00
23164;BME280;31429;42.674;23.350;2022-11-02T04:03:22;95357.50;;;9.73;100.00
23164;BME280;31429;42.674;23.350;2022-11-02T04:04:23;95385.53;;;9.76;100.00
23164;BME280;31429;42.674;23.350;2022-11-02T04:05:27;95389.22;;;9.64;100.00
23164;BME280;31429;42.674;23.350;2022-11-02T04:06:29;95386.75;;;9.60;100.00
23164;BME280;31429;42.674;23.350;2022-11-02T04:07:32;95386.09;;;9.52;100.00
23164;BME280;31429;42.674;23.350;2022-11-02T04:08:53;95388.00;;;9.44;100.00
23164;BME280;31429;42.674;23.350;2022-11-02T04:09:53;95366.41;;;9.20;100.00
23164;BME280;31429;42.674;23.350;2022-11-02T04:10:54;95384.84;;;9.33;100.00
23164;BME280;31429;42.674;23.350;2022-11-02T04:12:14;95387.19;;;9.42;100.00
23164;BME280;31429;42.674;23.350;2022-11-02T04:13:34;95378.19;;;9.27;100.00
23164;BME280;31429;42.674;23.350;2022-11-02T04:15:01;95385.44;;;9.05;100.00
23164;BME280;31429;42.674;23.350;2022-11-02T04:16:03;95388.00;;;9.05;100.00
23164;BME280;31429;42.674;23.350;2022-11-02T04:17:04;95377.31;;;8.90;100.00
23164;BME280;31429;42.674;23.350;2022-11-02T04:18:23;95387.19;;;9.03;100.00
23164;BME280;31429;42.674;23.350;2022-11-02T04:19:43;95344.16;;;8.90;100.00
23164;BME280;31429;42.674;23.350;2022-11-02T04:20:48;95381.13;;;9.09;100.00
23164;BME280;31429;42.674;23.350;2022-11-02T04:21:49;95391.31;;;9.09;100.00
23164;BME280;31429;42.674;23.350;2022-11-02T04:23:08;95366.38;;;8.85;100.00
23164;BME280;31429;42.674;23.350;2022-11-02T04:24:27;95389.16;;;8.92;100.00
23164;BME280;31429;42.674;23.350;2022-11-02T04:25:51;95379.31;;;8.76;100.00
23164;BME280;31429;42.674;23.350;2022-11-02T04:26:52;95348.47;;;8.48;100.00
23164;BME280;31429;42.674;23.350;2022-11-02T04:27:53;95385.13;;;8.82;100.00
23164;BME280;31429;42.674;23.350;2022-11-02T04:28:53;95385.69;;;8.95;100.00
23164;BME280;31429;42.674;23.350;2022-11-02T04:29:54;95382.22;;;8.97;100.00
23164;BME280;31429;42.674;23.350;2022-11-02T04:30:56;95386.47;;;8.97;100.00
23164;BME280;31429;42.674;23.350;2022-11-02T04:31:59;95394.22;;;8.94;100.00
23164;BME280;31429;42.674;23.350;2022-11-02T04:33:00;95398.44;;;8.95;100.00
23164;BME280;31429;42.674;23.350;2022-11-02T04:34:19;95371.75;;;8.71;100.00
23164;BME280;31429;42.674;23.350;2022-11-02T04:35:19;95345.13;;;8.44;100.00
23164;BME280;31429;42.674;23.350;2022-11-02T04:36:20;95393.00;;;8.70;100.00
23164;BME280;31429;42.674;23.350;2022-11-02T04:37:20;95392.34;;;8.60;100.00
23164;BME280;31429;42.674;23.350;2022-11-02T04:38:40;95386.41;;;8.61;100.00
23164;BME280;31429;42.674;23.350;2022-11-02T04:39:40;95375.53;;;8.52;100.00
23164;BME280;31429;42.674;23.350;2022-11-02T04:40:41;95385.53;;;8.61;100.00
23164;BME280;31429;42.674;23.350;2022-11-02T04:41:41;95394.16;;;8.55;100.00
23164;BME280;31429;42.674;23.350;2022-11-02T04:42:45;95392.47;;;8.54;100.00
23164;BME280;31429;42.674;23.350;2022-11-02T04:43:45;95390.75;;;8.55;100.00
23164;BME280;31429;42.674;23.350;2022-11-02T04:44:46;95393.91;;;8.68;100.00
23164;BME280;31429;42.674;23.350;2022-11-02T04:45:47;95387.69;;;8.81;100.00
23164;BME280;31429;42.674;23.350;2022-11-02T04:46:50;95387.69;;;8.81;100.00
23164;BME280;31429;42.674;23.350;2022-11-02T04:47:52;95379.50;;;8.66;100.00
23164;BME280;31429;42.674;23.350;2022-11-02T04:48:58;95387.66;;;8.41;100.00
23164;BME280;31429;42.674;23.350;2022-11-02T04:49:59;95377.28;;;8.50;100.00
23164;BME280;31429;42.674;23.350;2022-11-02T04:50:59;95393.94;;;8.66;100.00
23164;BME280;31429;42.674;23.350;2022-11-02T04:52:00;95392.97;;;8.72;100.00
23164;BME280;31429;42.674;23.350;2022-11-02T04:53:03;95365.66;;;8.37;100.00
23164;BME280;31429;42.674;23.350;2022-11-02T04:54:04;95392.47;;;8.54;100.00
23164;BME280;31429;42.674;23.350;2022-11-02T04:55:06;95389.16;;;8.51;100.00
23164;BME280;31429;42.674;23.350;2022-11-02T04:56:07;95385.94;;;8.41;100.00
23164;BME280;31429;42.674;23.350;2022-11-02T04:57:08;95390.81;;;8.52;100.00
23164;BME280;31429;42.674;23.350;2022-11-02T04:58:13;95397.66;;;8.50;100.00
23164;BME280;31429;42.674;23.350;2022-11-02T04:59:14;95384.09;;;8.49;100.00
23164;BME280;31429;42.674;23.350;2022-11-02T05:00:15;95388.22;;;8.55;100.00
23164;BME280;31429;42.674;23.350;2022-11-02T05:01:17;95373.16;;;8.44;100.00
23164;BME280;31429;42.674;23.350;2022-11-02T05:02:19;95387.06;;;8.71;100.00
23164;BME280;31429;42.674;23.350;2022-11-02T05:03:21;95374.44;;;8.63;100.00
23164;BME280;31429;42.674;23.350;2022-11-02T05:04:22;95388.34;;;8.90;100.00
23164;BME280;31429;42.674;23.350;2022-11-02T05:05:22;95384.53;;;8.70;100.00
23164;BME280;31429;42.674;23.350;2022-11-02T05:06:24;95368.72;;;8.52;100.00
23164;BME280;31429;42.674;23.350;2022-11-02T05:07:24;95395.75;;;8.61;100.00
23164;BME280;31429;42.674;23.350;2022-11-02T05:08:25;95403.50;;;8.55;100.00
23164;BME280;31429;42.674;23.350;2022-11-02T05:09:26;95383.44;;;8.40;100.00
23164;BME280;31429;42.674;23.350;2022-11-02T05:10:26;95402.72;;;8.53;100.00
23164;BME280;31429;42.674;23.350;2022-11-02T05:11:27;95403.59;;;8.50;100.00
23164;BME280;31429;42.674;23.350;2022-11-02T05:12:28;95389.41;;;8.37;100.00
23164;BME280;31429;42.674;23.350;2022-11-02T05:13:28;95381.69;;;8.42;100.00
23164;BME280;31429;42.674;23.350;2022-11-02T05:14:29;95393.25;;;8.58;100.00
23164;BME280;31429;42.674;23.350;2022-11-02T05:15:30;95381.25;;;8.64;100.00
23164;BME280;31429;42.674;23.350;2022-11-02T05:16:30;95381.31;;;8.61;100.00
23164;BME280;31429;42.674;23.350;2022-11-02T05:17:31;95408.41;;;8.65;100.00
23164;BME280;31429;42.674;23.350;2022-11-02T05:18:33;95399.81;;;8.70;100.00
23164;BME280;31429;42.674;23.350;2022-11-02T05:19:34;95405.34;;;8.90;100.00
23164;BME280;31429;42.674;23.350;2022-11-02T05:20:34;95396.59;;;9.01;100.00
23164;BME280;31429;42.674;23.350;2022-11-02T05:21:35;95394.59;;;9.14;100.00
23164;BME280;31429;42.674;23.350;2022-11-02T05:22:35;95376.97;;;9.05;100.00
23164;BME280;31429;42.674;23.350;2022-11-02T05:23:40;95411.34;;;9.25;100.00
23164;BME280;31429;42.674;23.350;2022-11-02T05:24:41;95406.84;;;9.37;100.00
23164;BME280;31429;42.674;23.350;2022-11-02T05:25:41;95407.63;;;9.40;100.00
23164;BME280;31429;42.674;23.350;2022-11-02T05:26:42;95391.25;;;9.13;100.00
23164;BME280;31429;42.674;23.350;2022-11-02T05:27:43;95405.84;;;9.07;100.00
23164;BME280;31429;42.674;23.350;2022-11-02T05:28:43;95414.28;;;9.09;100.00
23164;BME280;31429;42.674;23.350;2022-11-02T05:29:44;95394.84;;;9.03;100.00
23164;BME280;31429;42.674;23.350;2022-11-02T05:30:45;95415.66;;;9.23;100.00
23164;BME280;31429;42.674;23.350;2022-11-02T05:31:45;95418.22;;;9.23;100.00
23164;BME280;31429;42.674;23.350;2022-11-02T05:32:46;95417.53;;;9.15;100.00